Santander, Cantabria

latitud = 43° 29' 28''N | longitud = 003° 48' 02''W
52 metros sobre el nivel del mar | datos mensuales

Fecha, hora, temperatura, viento dirección y velocidad, humedad y presión.

  • 16-08-2018 02:00:00 | 19.80°C | Sudeste |4.00 km/h | 92.00% | 1010.40 hPa
  • 16-08-2018 01:00:00 | 19.70°C | Sudeste |10.00 km/h | 91.00% | 1010.50 hPa
  • 16-08-2018 00:00:00 | 20.20°C | Este |12.00 km/h | 90.00% | 1010.60 hPa
  • 15-08-2018 23:00:00 | 20.60°C | Este |14.00 km/h | 88.00% | 1010.60 hPa
  • 15-08-2018 22:00:00 | 20.60°C | Este |12.00 km/h | 86.00% | 1010.40 hPa
  • 15-08-2018 21:00:00 | 21.40°C | Este |21.00 km/h | 82.00% | 1010.10 hPa
  • 15-08-2018 20:00:00 | 21.80°C | Este |29.00 km/h | 80.00% | 1010.10 hPa
  • 15-08-2018 19:00:00 | 21.90°C | Este |32.00 km/h | 79.00% | 1010.20 hPa
  • 15-08-2018 18:00:00 | 22.20°C | Este |31.00 km/h | 78.00% | 1010.80 hPa
  • 15-08-2018 17:00:00 | 22.50°C | Este |29.00 km/h | 75.00% | 1011.10 hPa
  • 15-08-2018 16:00:00 | 22.70°C | Este |28.00 km/h | 74.00% | 1011.60 hPa
  • 15-08-2018 15:00:00 | 23.00°C | Este |26.00 km/h | 73.00% | 1012.00 hPa
  • 15-08-2018 14:00:00 | 22.90°C | Este |27.00 km/h | 73.00% | 1012.40 hPa
  • 15-08-2018 13:00:00 | 23.00°C | Este |26.00 km/h | 73.00% | 1012.80 hPa
  • 15-08-2018 12:00:00 | 23.60°C | Este |21.00 km/h | 69.00% | 1013.20 hPa
  • 15-08-2018 11:00:00 | 23.20°C | Este |19.00 km/h | 68.00% | 1013.40 hPa
  • 15-08-2018 10:00:00 | 22.60°C | Este |8.00 km/h | 75.00% | 1013.70 hPa
  • 15-08-2018 09:00:00 | 20.20°C | Sudeste |8.00 km/h | 85.00% | 1014.00 hPa
  • 15-08-2018 08:00:00 | 18.90°C | Sudeste |8.00 km/h | 88.00% | 1014.00 hPa
  • 15-08-2018 07:00:00 | 18.80°C | Sur |9.00 km/h | 89.00% | 1014.00 hPa
  • 15-08-2018 06:00:00 | 18.20°C | Sur |9.00 km/h | 89.00% | 1014.30 hPa
  • 15-08-2018 05:00:00 | 18.50°C | Sudeste |12.00 km/h | 88.00% | 1014.80 hPa
  • 15-08-2018 04:00:00 | 18.60°C | Sudeste |9.00 km/h | 88.00% | 1015.30 hPa
  • 15-08-2018 03:00:00 | 19.20°C | Sudeste |9.00 km/h | 87.00% | 1015.60 hPa